Time;durP1;ratioP1;P1;durP2;ratioP2;P2;SDS_P1;SDS_P2;PMS_P1;PMS_P2;Temp;Humidity;BMP_temperature;BMP_pressure;BME280_temperature;BME280_humidity;BME280_pressure;Samples;Min_cycle;Max_cycle;Signal;HPM_P1;HPM_P2
2021/10/20 00:04:19;;;;;;;4.23;2.43;;;8.20;99.90;;;8.71;100.00;95524.00;2199706;56;33347;-55
2021/10/20 00:07:05;;;;;;;3.30;2.50;;;8.20;99.90;;;8.57;100.00;95536.00;2207829;57;26743;-56
2021/10/20 00:09:52;;;;;;;3.27;2.00;;;8.10;99.90;;;8.46;100.00;95543.00;2206460;58;26174;-56
2021/10/20 00:12:39;;;;;;;3.27;2.20;;;8.10;99.90;;;8.61;100.00;95541.00;2207735;57;26732;-56
2021/10/20 00:15:25;;;;;;;3.37;2.27;;;8.10;99.90;;;8.57;100.00;95539.00;2206972;58;26912;-54
2021/10/20 00:18:12;;;;;;;4.97;2.30;;;8.10;99.90;;;8.68;100.00;95529.00;2207325;58;26806;-54
2021/10/20 00:20:59;;;;;;;3.27;2.30;;;8.10;99.90;;;8.55;100.00;95533.00;2207222;57;26154;-55
2021/10/20 00:23:45;;;;;;;3.13;2.23;;;7.90;99.90;;;8.35;100.00;95524.00;2211978;57;26148;-54
2021/10/20 00:26:32;;;;;;;2.57;2.20;;;7.80;99.90;;;8.33;100.00;95527.00;2201469;57;26631;-55
2021/10/20 00:29:18;;;;;;;3.03;2.00;;;7.90;99.90;;;8.40;100.00;95520.00;2198643;57;26146;-54
2021/10/20 00:32:06;;;;;;;2.90;2.23;;;7.80;99.90;;;8.18;100.00;95512.00;2178929;56;26231;-54
2021/10/20 00:34:52;;;;;;;5.03;2.60;;;7.70;99.90;;;8.12;100.00;95519.00;2402564;56;26302;-54
2021/10/20 00:37:40;;;;;;;3.80;2.13;;;7.70;99.90;;;8.34;100.00;95513.00;2184022;57;26203;-55
2021/10/20 00:40:26;;;;;;;2.60;2.17;;;7.70;99.90;;;8.19;100.00;95512.00;2183550;57;26165;-55
2021/10/20 00:43:13;;;;;;;3.27;2.43;;;7.50;99.90;;;7.89;100.00;95508.00;2398114;57;26142;-55
2021/10/20 00:45:59;;;;;;;5.00;2.27;;;7.40;99.90;;;7.77;100.00;95501.00;2398494;57;26166;-54
2021/10/20 00:48:45;;;;;;;2.20;2.00;;;7.40;99.90;;;7.82;100.00;95501.00;2205726;57;26257;-54
2021/10/20 00:51:32;;;;;;;3.93;2.17;;;7.40;99.90;;;7.95;100.00;95496.00;2185453;58;26168;-55
2021/10/20 00:54:18;;;;;;;2.30;2.03;;;7.40;99.90;;;7.84;100.00;95501.00;2414942;56;26192;-55
2021/10/20 00:57:06;;;;;;;3.90;2.20;;;7.30;99.90;;;7.63;100.00;95494.00;2195219;58;26215;-61
2021/10/20 00:59:54;;;;;;;2.93;2.30;;;7.30;99.90;;;7.73;100.00;95492.00;2423062;57;26291;-55
2021/10/20 01:02:41;;;;;;;2.43;2.00;;;7.30;99.90;;;7.77;100.00;95477.00;2189350;57;26252;-55
2021/10/20 01:05:28;;;;;;;2.97;2.10;;;7.40;99.90;;;7.75;100.00;95480.00;2216814;56;26229;-55
2021/10/20 01:08:15;;;;;;;2.73;2.17;;;7.20;99.90;;;7.51;100.00;95477.00;2238947;56;26654;-54
2021/10/20 01:11:01;;;;;;;2.77;2.10;;;7.10;99.90;;;7.40;100.00;95472.00;2487240;55;26114;-55
2021/10/20 01:13:48;;;;;;;3.60;2.33;;;7.00;99.90;;;7.41;100.00;95465.00;2266205;56;26237;-54
2021/10/20 01:16:34;;;;;;;3.70;2.37;;;7.00;99.90;;;7.59;100.00;95471.00;2494268;55;26140;-55
2021/10/20 01:19:22;;;;;;;3.77;2.27;;;7.10;99.90;;;7.59;100.00;95468.00;2237121;56;26121;-56
2021/10/20 01:22:08;;;;;;;2.63;2.07;;;6.90;99.90;;;7.26;100.00;95456.00;2243761;56;26172;-55
2021/10/20 01:24:55;;;;;;;3.47;1.97;;;6.80;99.90;;;7.10;100.00;95454.00;2463084;55;26608;-55
2021/10/20 01:27:42;;;;;;;3.37;2.20;;;6.80;99.90;;;7.13;100.00;95453.00;2239885;56;26132;-55
2021/10/20 01:30:28;;;;;;;3.90;2.07;;;6.70;99.90;;;6.98;100.00;95448.00;2462994;55;26219;-54
2021/10/20 01:33:14;;;;;;;2.27;1.80;;;6.60;99.90;;;6.90;100.00;95442.00;2261091;56;26064;-55
2021/10/20 01:36:01;;;;;;;3.20;2.20;;;6.60;99.90;;;7.02;100.00;95438.00;2494624;55;26131;-55
2021/10/20 01:38:50;;;;;;;2.63;1.90;;;6.60;99.90;;;7.10;100.00;95433.00;2266035;56;26083;-56
2021/10/20 01:41:37;;;;;;;3.83;2.30;;;6.70;99.90;;;7.09;100.00;95428.00;2494492;55;26099;-54
2021/10/20 01:44:23;;;;;;;5.43;2.10;;;6.50;99.90;;;6.92;100.00;95429.00;2265554;56;26079;-55
2021/10/20 01:47:10;;;;;;;2.10;1.67;;;6.40;99.90;;;6.88;100.00;95429.00;2265405;56;26072;-54
2021/10/20 01:49:56;;;;;;;3.90;1.60;;;6.50;99.90;;;7.01;100.00;95424.00;2494096;55;26076;-55
2021/10/20 01:52:43;;;;;;;2.20;1.77;;;6.60;99.90;;;7.10;100.00;95413.00;2265906;56;26554;-55
2021/10/20 01:55:29;;;;;;;2.70;1.93;;;6.50;99.90;;;6.87;100.00;95411.00;2494173;55;26123;-55
2021/10/20 02:01:13;;;;;;;2.03;1.73;;;6.50;99.90;;;7.23;100.00;95387.00;2251748;56;33169;-55
2021/10/20 02:03:59;;;;;;;3.77;1.97;;;6.60;99.90;;;7.07;100.00;95396.00;2438737;56;26134;-56
2021/10/20 02:06:46;;;;;;;2.77;2.13;;;6.60;99.90;;;7.08;100.00;95391.00;2432619;56;26156;-56
2021/10/20 02:09:33;;;;;;;6.00;2.20;;;6.60;99.90;;;7.20;100.00;95384.00;2224402;56;26719;-56
2021/10/20 02:12:19;;;;;;;2.40;2.03;;;6.70;99.90;;;7.37;100.00;95380.00;2440966;55;26187;-55
2021/10/20 02:18:04;;;;;;;3.90;2.33;;;6.70;99.90;;;7.24;100.00;95365.00;2286738;55;33065;-55
2021/10/20 02:20:52;;;;;;;2.80;2.03;;;6.60;99.90;;;7.01;100.00;95374.00;2289933;55;26178;-57
2021/10/20 02:23:39;;;;;;;4.17;2.30;;;6.50;99.90;;;6.94;100.00;95362.00;2289840;55;26204;-55
2021/10/20 02:26:25;;;;;;;3.37;2.27;;;6.30;99.90;;;6.61;100.00;95358.00;2290372;56;26282;-56
2021/10/20 02:29:12;;;;;;;3.00;2.00;;;6.10;99.90;;;6.48;100.00;95366.00;2290227;56;26172;-56
2021/10/20 02:32:00;;;;;;;4.87;2.20;;;6.10;99.90;;;6.67;100.00;95350.00;2290156;56;26556;-55
2021/10/20 02:34:47;;;;;;;4.23;2.40;;;6.20;99.90;;;6.74;100.00;95351.00;2525994;54;26079;-55
2021/10/20 02:37:34;;;;;;;3.17;2.20;;;6.20;99.90;;;6.61;100.00;95350.00;2292251;56;26578;-55
2021/10/20 02:40:20;;;;;;;2.60;2.27;;;6.00;99.90;;;6.40;100.00;95350.00;2291755;56;26589;-55
2021/10/20 02:43:06;;;;;;;3.00;2.43;;;6.00;99.90;;;6.52;100.00;95349.00;2525401;54;26095;-55
2021/10/20 02:45:54;;;;;;;3.17;2.37;;;5.90;99.90;;;6.31;100.00;95348.00;2290498;55;26657;-55
2021/10/20 02:48:42;;;;;;;3.53;2.87;;;5.80;99.90;;;6.16;100.00;95346.00;2290300;56;26643;-56
2021/10/20 02:51:29;;;;;;;7.43;2.43;;;5.70;99.90;;;6.04;100.00;95339.00;2290491;56;26673;-56
2021/10/20 02:54:16;;;;;;;3.07;2.20;;;5.70;99.90;;;6.07;100.00;95339.00;2292082;56;26191;-56
2021/10/20 02:57:02;;;;;;;4.30;2.40;;;5.60;99.90;;;6.07;100.00;95339.00;2291643;56;26182;-55
2021/10/20 02:59:51;;;;;;;3.73;2.40;;;5.80;99.90;;;6.57;100.00;95333.00;2302028;55;26833;-56
2021/10/20 03:02:37;;;;;;;2.83;2.23;;;5.90;99.90;;;6.58;100.00;95330.00;2312868;54;26132;-55
2021/10/20 03:05:23;;;;;;;4.83;2.50;;;5.90;99.90;;;6.32;100.00;95319.00;2313568;54;26089;-56
2021/10/20 03:08:11;;;;;;;3.20;2.50;;;5.80;99.90;;;6.46;100.00;95318.00;2312821;54;26097;-56
2021/10/20 03:10:58;;;;;;;3.20;2.47;;;5.90;99.90;;;6.50;100.00;95312.00;2312271;54;26457;-56
2021/10/20 03:13:44;;;;;;;5.00;2.70;;;5.80;99.90;;;6.24;100.00;95302.00;2312558;54;26100;-60
2021/10/20 03:16:31;;;;;;;4.60;3.10;;;5.70;99.90;;;6.12;100.00;95305.00;2312566;54;26132;-56
2021/10/20 03:22:15;;;;;;;3.93;3.20;;;5.50;99.90;;;6.03;100.00;95301.00;2242954;55;33660;-56
2021/10/20 03:25:01;;;;;;;4.67;3.23;;;5.40;99.90;;;5.83;100.00;95301.00;2455869;55;26092;-56
2021/10/20 03:27:49;;;;;;;7.00;3.83;;;5.40;99.90;;;5.71;100.00;95305.00;2260824;56;26168;-55
2021/10/20 03:30:36;;;;;;;6.80;3.27;;;5.30;99.90;;;5.64;100.00;95304.00;2245392;56;26176;-56
2021/10/20 03:33:22;;;;;;;4.60;3.50;;;5.30;99.90;;;5.56;100.00;95295.00;2260940;56;26179;-56
2021/10/20 03:36:09;;;;;;;6.67;3.50;;;5.30;99.90;;;5.84;100.00;95298.00;2489206;55;26143;-56
2021/10/20 03:38:56;;;;;;;5.87;3.90;;;5.50;99.90;;;5.99;100.00;95288.00;2489010;55;26627;-56
2021/10/20 03:41:42;;;;;;;6.13;3.97;;;5.50;99.90;;;6.06;100.00;95285.00;2488996;55;26209;-57
2021/10/20 03:44:28;;;;;;;5.73;3.73;;;5.50;99.90;;;6.01;100.00;95284.00;2261075;56;26144;-56
2021/10/20 03:47:15;;;;;;;4.80;3.47;;;5.60;99.90;;;6.08;100.00;95278.00;2489259;55;26124;-56
2021/10/20 03:50:02;;;;;;;7.90;3.27;;;5.60;99.90;;;6.03;100.00;95277.00;2260548;56;26123;-56
2021/10/20 03:52:49;;;;;;;5.83;3.53;;;5.60;99.90;;;6.08;100.00;95278.00;2489277;55;26686;-56
2021/10/20 03:55:35;;;;;;;6.00;3.47;;;5.50;99.90;;;5.95;100.00;95272.00;2240770;56;26568;-55
2021/10/20 03:58:22;;;;;;;5.87;3.70;;;5.40;99.90;;;5.92;100.00;95270.00;2235598;57;26227;-55
2021/10/20 04:01:09;;;;;;;6.67;4.20;;;5.30;99.90;;;5.71;100.00;95271.00;2235072;56;26681;-55
2021/10/20 04:03:56;;;;;;;5.63;3.87;;;5.20;99.90;;;5.52;100.00;95262.00;2212359;57;26269;-56
2021/10/20 04:06:42;;;;;;;7.57;3.70;;;5.10;99.90;;;5.42;100.00;95255.00;2429843;57;26161;-59
2021/10/20 04:09:28;;;;;;;5.47;3.77;;;5.10;99.90;;;5.58;100.00;95250.00;2211769;57;26189;-55
2021/10/20 04:12:15;;;;;;;8.80;4.47;;;5.20;99.90;;;5.65;100.00;95254.00;2429719;57;26624;-56
2021/10/20 04:15:01;;;;;;;8.70;4.90;;;5.10;99.90;;;5.45;100.00;95252.00;2211977;57;26627;-56
2021/10/20 04:17:47;;;;;;;8.10;4.33;;;5.00;99.90;;;5.33;100.00;95252.00;2430227;57;26177;-56
2021/10/20 04:20:33;;;;;;;7.10;4.63;;;5.00;99.90;;;5.22;100.00;95246.00;2429493;56;26125;-57
2021/10/20 04:23:20;;;;;;;6.50;4.50;;;4.90;99.90;;;5.17;100.00;95243.00;2211613;57;26133;-56
2021/10/20 04:26:06;;;;;;;6.87;4.77;;;5.00;99.90;;;5.52;100.00;95252.00;2429495;56;26117;-55
2021/10/20 04:28:52;;;;;;;7.77;4.63;;;5.00;99.90;;;5.50;100.00;95251.00;2211780;57;26149;-55
2021/10/20 04:31:39;;;;;;;8.67;5.10;;;5.00;99.90;;;5.51;100.00;95249.00;2429315;57;26612;-56
2021/10/20 04:34:25;;;;;;;8.27;5.03;;;5.10;99.90;;;5.48;100.00;95242.00;2209587;57;26192;-56
2021/10/20 04:37:11;;;;;;;7.40;4.40;;;5.10;99.90;;;5.63;100.00;95232.00;2209964;57;26650;-55
2021/10/20 04:40:00;;;;;;;5.87;3.27;;;5.10;99.90;;;5.49;100.00;95230.00;2213652;57;26584;-55
2021/10/20 04:42:46;;;;;;;5.87;3.50;;;4.90;99.90;;;5.28;100.00;95220.00;2208398;58;26300;-56
2021/10/20 04:45:33;;;;;;;4.30;2.90;;;5.00;99.90;;;5.58;100.00;95220.00;2207958;57;26161;-55
2021/10/20 04:48:20;;;;;;;3.77;2.60;;;4.90;99.90;;;5.33;100.00;95220.00;2426508;57;26218;-57
2021/10/20 04:51:06;;;;;;;3.93;2.87;;;4.80;99.90;;;5.13;100.00;95216.00;2209885;58;26731;-56
2021/10/20 04:53:52;;;;;;;3.53;2.87;;;4.70;99.90;;;4.94;100.00;95214.00;2209592;57;26185;-56
2021/10/20 04:56:39;;;;;;;3.43;2.67;;;4.60;99.90;;;4.88;100.00;95196.00;2426748;57;26221;-55
2021/10/20 05:02:23;;;;;;;5.13;3.10;;;4.60;99.90;;;5.12;100.00;95172.00;2257385;54;33369;-57
2021/10/20 05:05:11;;;;;;;4.23;2.53;;;4.60;99.90;;;5.05;100.00;95175.00;2285153;55;26605;-56
2021/10/20 05:07:59;;;;;;;4.50;3.07;;;4.70;99.90;;;5.16;100.00;95176.00;2285558;55;26234;-56
2021/10/20 05:10:46;;;;;;;3.67;3.00;;;4.60;99.90;;;5.01;100.00;95168.00;2286911;55;26192;-56
2021/10/20 05:13:32;;;;;;;5.20;3.10;;;4.50;99.90;;;4.89;100.00;95164.00;2520554;55;26660;-56
2021/10/20 05:16:19;;;;;;;4.20;2.80;;;4.50;99.90;;;4.77;100.00;95160.00;2287131;55;26562;-56
2021/10/20 05:19:05;;;;;;;2.80;2.50;;;4.50;99.90;;;4.73;100.00;95166.00;2520679;55;26626;-57
2021/10/20 05:21:51;;;;;;;5.93;4.07;;;4.40;99.90;;;4.80;100.00;95157.00;2266043;56;26533;-56
2021/10/20 05:24:37;;;;;;;3.37;2.60;;;4.50;99.90;;;4.93;100.00;95157.00;2260337;56;26194;-57
2021/10/20 05:27:24;;;;;;;2.90;2.50;;;4.60;99.90;;;5.04;100.00;95158.00;2488169;55;26182;-56
2021/10/20 05:30:13;;;;;;;4.20;2.80;;;4.70;99.90;;;5.03;100.00;95155.00;2264507;56;26190;-56
2021/10/20 05:32:59;;;;;;;3.90;2.83;;;4.70;99.90;;;5.07;100.00;95157.00;2486678;55;26268;-56
2021/10/20 05:35:45;;;;;;;3.60;2.60;;;4.70;99.90;;;5.10;100.00;95151.00;2266638;56;26106;-57
2021/10/20 05:38:32;;;;;;;4.03;2.80;;;4.70;99.90;;;5.18;100.00;95149.00;2490916;55;26191;-55
2021/10/20 05:41:19;;;;;;;3.20;2.40;;;4.70;99.90;;;5.14;100.00;95142.00;2240264;58;26104;-56
2021/10/20 05:44:06;;;;;;;3.73;2.73;;;4.60;99.90;;;5.07;100.00;95137.00;2464481;56;26590;-57
2021/10/20 05:46:52;;;;;;;3.37;2.40;;;4.60;99.90;;;5.02;100.00;95129.00;2211574;57;26102;-56
2021/10/20 05:49:39;;;;;;;3.40;2.37;;;4.50;99.90;;;4.88;100.00;95136.00;2211230;57;26233;-55
2021/10/20 05:52:25;;;;;;;4.37;2.33;;;4.50;99.90;;;4.80;100.00;95134.00;2453238;55;26084;-55
2021/10/20 05:55:12;;;;;;;4.77;2.37;;;4.40;99.90;;;4.81;100.00;95143.00;2237007;55;26088;-56
2021/10/20 05:57:58;;;;;;;4.57;3.23;;;4.40;99.90;;;4.73;100.00;95138.00;2470400;54;26207;-56
2021/10/20 06:00:45;;;;;;;6.40;3.90;;;4.40;99.90;;;4.88;100.00;95136.00;2266199;55;26544;-56
2021/10/20 06:03:31;;;;;;;4.57;2.60;;;4.60;99.90;;;5.09;100.00;95138.00;2494990;55;26125;-56
2021/10/20 06:06:17;;;;;;;3.77;2.73;;;4.70;99.90;;;5.23;100.00;95138.00;2265950;55;26154;-56
2021/10/20 06:09:04;;;;;;;3.37;2.87;;;4.70;99.90;;;5.24;100.00;95135.00;2495479;55;26093;-56
2021/10/20 06:11:50;;;;;;;3.47;2.70;;;4.80;99.90;;;5.24;100.00;95137.00;2495655;55;26145;-55
2021/10/20 06:14:36;;;;;;;5.50;2.77;;;4.90;99.90;;;5.29;100.00;95144.00;2263931;55;26207;-56
2021/10/20 06:17:23;;;;;;;7.00;2.90;;;4.90;99.90;;;5.36;100.00;95144.00;2263944;55;26173;-56
2021/10/20 06:20:11;;;;;;;2.93;2.37;;;5.00;99.90;;;5.41;100.00;95145.00;2263769;55;26137;-56
2021/10/20 06:22:57;;;;;;;3.97;2.60;;;4.90;99.90;;;5.25;100.00;95147.00;2494949;55;26661;-55
2021/10/20 06:25:44;;;;;;;4.77;2.93;;;4.90;99.90;;;5.18;100.00;95151.00;2265414;55;26201;-55
2021/10/20 06:28:31;;;;;;;5.23;2.63;;;4.90;99.90;;;5.24;100.00;95153.00;2494518;54;26089;-57
2021/10/20 06:31:17;;;;;;;7.17;3.00;;;4.90;99.90;;;5.34;100.00;95146.00;2265680;55;26133;-55
2021/10/20 06:34:03;;;;;;;4.47;2.73;;;5.00;99.90;;;5.41;100.00;95157.00;2494202;55;26153;-56
2021/10/20 06:36:50;;;;;;;4.37;2.60;;;5.10;99.90;;;5.46;100.00;95150.00;2265411;55;26141;-57
2021/10/20 06:39:37;;;;;;;5.97;2.40;;;5.10;99.90;;;5.49;100.00;95139.00;2264123;55;26109;-55
2021/10/20 06:42:23;;;;;;;4.30;3.20;;;5.20;99.90;;;5.70;100.00;95157.00;2493027;55;26137;-56
2021/10/20 06:45:11;;;;;;;11.53;6.87;;;5.30;99.90;;;5.78;100.00;95163.00;2265037;55;26172;-56
2021/10/20 06:47:57;;;;;;;8.37;4.93;;;5.50;99.90;;;5.93;100.00;95162.00;2493590;55;26133;-56
2021/10/20 06:50:44;;;;;;;8.33;5.63;;;5.70;99.90;;;6.17;100.00;95157.00;2265194;55;26181;-55
2021/10/20 06:53:30;;;;;;;11.33;5.87;;;5.90;99.90;;;6.33;100.00;95156.00;2493663;54;26628;-56
2021/10/20 06:56:17;;;;;;;7.33;5.53;;;6.20;99.90;;;6.60;100.00;95156.00;2265291;55;26117;-57
2021/10/20 06:59:04;;;;;;;7.27;4.83;;;6.40;99.90;;;6.90;100.00;95157.00;2264355;55;26618;-57
2021/10/20 07:01:51;;;;;;;6.30;4.60;;;6.60;99.90;;;7.14;100.00;95153.00;2260843;56;27020;-56
2021/10/20 07:04:37;;;;;;;10.57;5.17;;;6.80;99.90;;;7.41;100.00;95154.00;2261122;56;26142;-57
2021/10/20 07:07:24;;;;;;;6.13;4.73;;;7.00;99.90;;;7.65;100.00;95149.00;2489839;55;26091;-56
2021/10/20 07:10:11;;;;;;;5.03;4.37;;;7.20;99.90;;;7.78;100.00;95149.00;2261472;56;26111;-57
2021/10/20 07:12:57;;;;;;;5.23;4.03;;;7.40;99.90;;;7.92;100.00;95146.00;2489919;55;31142;-55
2021/10/20 07:15:47;;;;;;;4.50;3.40;;;7.50;99.90;;;8.15;100.00;95149.00;2261280;56;26158;-56
2021/10/20 07:18:33;;;;;;;5.27;3.33;;;7.70;99.90;;;8.43;100.00;95150.00;2489422;55;26118;-56
2021/10/20 07:21:19;;;;;;;3.90;3.30;;;8.00;99.90;;;8.67;100.00;95155.00;2261123;56;26175;-56
2021/10/20 07:24:06;;;;;;;4.30;3.10;;;8.30;99.90;;;9.00;100.00;95155.00;2489819;55;26194;-56
2021/10/20 07:26:52;;;;;;;4.13;3.00;;;8.60;99.90;;;9.24;100.00;95172.00;2261513;56;26131;-57
2021/10/20 07:29:40;;;;;;;4.37;3.03;;;8.90;99.90;;;9.48;100.00;95180.00;2489642;55;26126;-56
2021/10/20 07:32:26;;;;;;;4.67;3.80;;;9.10;99.90;;;9.73;100.00;95175.00;2260142;56;26077;-57
2021/10/20 07:35:15;;;;;;;6.57;5.10;;;9.30;99.90;;;10.01;100.00;95177.00;2265733;56;26221;-57
2021/10/20 07:38:02;;;;;;;6.00;4.43;;;9.70;99.90;;;10.67;100.00;95173.00;2266045;56;26186;-56
2021/10/20 07:40:49;;;;;;;6.50;3.83;;;10.20;99.90;;;11.64;100.00;95178.00;2265932;56;26544;-57
2021/10/20 07:43:35;;;;;;;8.20;4.07;;;10.70;99.90;;;11.96;100.00;95160.00;2464550;55;26103;-56
2021/10/20 07:46:22;;;;;;;6.37;3.87;;;10.80;99.90;;;11.88;100.00;95154.00;2240966;56;26111;-56
2021/10/20 07:49:10;;;;;;;4.70;3.37;;;10.70;99.90;;;11.44;100.00;95136.00;2464283;55;26143;-56
2021/10/20 07:51:56;;;;;;;3.90;3.10;;;10.60;99.90;;;11.06;100.00;95132.00;2240999;56;26618;-56
2021/10/20 07:54:43;;;;;;;5.13;2.70;;;10.60;99.90;;;11.13;100.00;95122.00;2464311;55;26663;-56
2021/10/20 08:00:28;;;;;;;3.27;2.17;;;10.80;99.90;;;11.51;100.00;95108.00;2217360;57;33449;-56
2021/10/20 08:03:14;;;;;;;3.57;1.90;;;11.00;99.90;;;11.63;100.00;95119.00;2219941;56;26173;-56
2021/10/20 08:06:00;;;;;;;2.60;2.20;;;11.20;99.90;;;11.73;100.00;95117.00;2398620;56;26145;-55
2021/10/20 08:11:44;;;;;;;3.27;2.20;;;11.60;99.90;;;12.37;100.00;95113.00;2258931;55;34569;-56
2021/10/20 08:14:33;;;;;;;3.12;1.80;;;11.90;99.90;;;12.47;100.00;95113.00;2242123;56;26201;-57
2021/10/20 08:17:20;;;;;;;4.32;1.83;;;13.00;99.90;;;14.65;100.00;95112.00;2231823;56;26643;-57
2021/10/20 08:20:11;;;;;;;5.72;2.15;;;15.10;99.90;;;18.22;100.00;95095.00;2231831;56;26210;-57
2021/10/20 08:22:58;;;;;;;4.62;2.00;;;17.30;99.90;;;20.97;100.00;95093.00;2247453;55;26575;-56
2021/10/20 08:25:44;;;;;;;2.90;1.80;;;19.20;99.90;;;23.16;100.00;95098.00;2238778;55;26146;-58
2021/10/20 08:28:31;;;;;;;4.50;1.73;;;20.50;99.90;;;24.22;100.00;95098.00;2460146;54;26091;-57
2021/10/20 08:31:17;;;;;;;4.57;1.52;;;21.60;99.90;;;25.78;100.00;95098.00;2246636;55;26196;-56
2021/10/20 08:34:04;;;;;;;2.20;1.58;;;22.70;99.90;;;27.51;93.81;95080.00;2472703;54;25124;-57
2021/10/20 08:36:50;;;;;;;2.75;1.85;;;24.10;99.90;;;29.19;83.51;95086.00;2246453;55;26212;-57
2021/10/20 08:39:37;;;;;;;3.45;1.70;;;24.40;99.90;;;29.41;74.83;95084.00;2240470;55;25116;-57
2021/10/20 08:42:23;;;;;;;2.72;1.60;;;25.20;99.90;;;30.33;74.32;95083.00;2256484;55;25087;-55
2021/10/20 08:45:11;;;;;;;3.72;1.37;;;25.60;99.90;;;30.82;62.44;95080.00;2475131;55;25572;-55
2021/10/20 08:47:58;;;;;;;1.60;1.30;;;25.60;99.90;;;29.95;56.61;95080.00;2266939;56;25675;-56
2021/10/20 08:50:48;;;;;;;2.20;1.35;;;25.70;99.90;;;30.40;57.39;95079.00;2266585;56;25647;-55
2021/10/20 08:53:34;;;;;;;1.85;1.20;;;26.00;99.90;;;31.13;56.62;95078.00;2266740;56;25182;-55
2021/10/20 08:56:20;;;;;;;3.60;1.20;;;26.00;99.90;;;31.15;52.87;95076.00;2266862;56;25058;-55
2021/10/20 08:59:07;;;;;;;1.92;1.15;;;26.50;99.90;;;31.38;50.85;95067.00;2266704;56;25109;-55
2021/10/20 09:01:53;;;;;;;1.40;1.20;;;26.40;99.90;;;30.77;52.91;95064.00;2261304;55;25700;-56
2021/10/20 09:04:43;;;;;;;1.37;1.27;;;26.30;99.90;;;30.88;54.85;95063.00;2465605;55;25122;-55
2021/10/20 09:07:29;;;;;;;1.30;1.20;;;26.30;99.90;;;31.04;54.42;95057.00;2242000;55;25543;-55
2021/10/20 09:10:17;;;;;;;1.50;1.30;;;26.50;99.90;;;30.93;49.53;95054.00;2465848;55;25504;-55
2021/10/20 09:13:04;;;;;;;1.77;1.48;;;26.00;99.90;;;30.67;55.05;95059.00;2241665;55;25106;-56
2021/10/20 09:15:50;;;;;;;2.22;1.30;;;26.30;99.90;;;30.81;50.51;95050.00;2465826;55;25119;-55
2021/10/20 09:18:39;;;;;;;1.27;1.10;;;26.60;99.90;;;31.86;48.68;95045.00;2242121;55;25086;-56
2021/10/20 09:21:25;;;;;;;2.22;1.10;;;26.70;99.90;;;32.32;45.06;95043.00;2464889;55;25553;-55
2021/10/20 09:24:12;;;;;;;1.70;1.20;;;27.10;99.90;;;32.39;49.40;95046.00;2240859;55;25684;-55
2021/10/20 09:26:59;;;;;;;1.45;1.10;;;27.80;99.90;;;33.36;47.18;95041.00;2241134;55;25210;-55
2021/10/20 09:29:46;;;;;;;2.58;1.30;;;27.80;99.90;;;32.94;44.21;95046.00;2464759;55;25128;-56
2021/10/20 09:32:33;;;;;;;1.40;1.30;;;27.60;99.90;;;32.68;45.62;95045.00;2240794;55;25101;-55
2021/10/20 09:35:20;;;;;;;1.35;1.25;;;27.00;99.90;;;31.02;45.89;95048.00;2464245;55;25054;-55
2021/10/20 09:38:08;;;;;;;1.58;1.20;;;26.60;99.90;;;30.87;47.18;95042.00;2240833;55;25082;-55
2021/10/20 09:40:55;;;;;;;1.30;1.10;;;26.40;99.90;;;30.17;46.92;95037.00;2464802;55;25147;-55
2021/10/20 09:43:43;;;;;;;5.25;1.23;;;26.30;99.90;;;30.71;46.52;95041.00;2240710;55;25601;-54
2021/10/20 09:46:35;;;;;;;1.27;1.10;;;26.70;99.90;;;31.81;44.31;95032.00;2464438;55;25166;-55
2021/10/20 09:49:24;;;;;;;2.42;1.20;;;27.20;99.90;;;32.31;45.28;95025.00;2240250;55;25235;-55
2021/10/20 09:52:10;;;;;;;1.37;1.20;;;27.30;99.90;;;32.60;44.68;95016.00;2465050;55;25067;-55
2021/10/20 09:54:58;;;;;;;1.35;1.17;;;28.20;99.90;;;32.85;40.29;95015.00;2240419;55;25097;-55
2021/10/20 09:57:45;;;;;;;2.83;1.45;;;27.60;99.90;;;31.93;42.10;95014.00;2464602;55;25071;-55
2021/10/20 10:00:31;;;;;;;2.15;1.30;;;27.30;99.90;;;31.88;41.51;95003.00;2240673;55;25075;-54
2021/10/20 10:03:19;;;;;;;2.85;1.77;;;27.20;99.90;;;31.88;42.47;95000.00;2464138;55;26621;-56
2021/10/20 10:06:05;;;;;;;1.75;1.40;;;27.30;99.90;;;31.06;39.13;94997.00;2240601;55;25109;-54
2021/10/20 10:08:51;;;;;;;3.42;1.40;;;26.50;99.90;;;30.39;38.28;94995.00;2464427;55;25660;-54
2021/10/20 10:11:41;;;;;;;1.40;1.23;;;26.60;99.90;;;31.29;38.07;94982.00;2240101;55;25576;-54
2021/10/20 10:17:31;;;;;;;3.28;1.27;;;26.50;99.90;;;30.82;37.66;94969.00;2211820;56;32273;-57
2021/10/20 10:20:19;;;;;;;2.75;1.30;;;26.20;99.90;;;30.07;38.42;94979.00;2205340;58;25171;-56
2021/10/20 10:23:07;;;;;;;1.40;1.25;;;26.30;99.90;;;30.58;36.91;94979.00;2427671;57;25079;-56
2021/10/20 10:29:11;;;;;;;1.75;1.12;;;27.30;99.90;;;30.72;36.19;94950.00;2241430;56;32332;-56
2021/10/20 10:34:56;;;;;;;2.72;1.20;;;26.50;99.90;;;31.51;35.96;94947.00;2258051;55;32292;-56
2021/10/20 10:37:45;;;;;;;1.73;1.23;;;27.20;99.90;;;31.32;34.45;94941.00;2233249;55;25088;-55
2021/10/20 10:40:32;;;;;;;2.22;1.30;;;25.90;99.90;;;28.57;38.43;94940.00;2464788;55;26118;-55
2021/10/20 10:43:18;;;;;;;2.03;1.40;;;25.80;99.90;;;28.82;38.99;94932.00;2245283;55;26164;-57
2021/10/20 10:46:06;;;;;;;2.03;1.52;;;26.30;99.90;;;31.09;39.33;94923.00;2241451;55;25127;-56
2021/10/20 10:48:53;;;;;;;3.05;1.95;;;26.40;99.90;;;30.72;38.73;94912.00;2465156;55;25131;-56
2021/10/20 10:51:43;;;;;;;2.28;1.60;;;26.70;99.90;;;31.15;35.80;94921.00;2240745;55;25131;-56
2021/10/20 10:54:35;;;;;;;1.55;1.20;;;26.10;99.90;;;29.84;38.73;94919.00;2464855;55;25091;-56
2021/10/20 10:57:22;;;;;;;2.15;1.33;;;25.80;99.90;;;28.98;40.23;94912.00;2480000;55;25138;-56
2021/10/20 11:00:24;;;;;;;2.12;1.40;;;24.50;99.90;;;26.26;44.62;94904.00;2258256;56;26163;-56
2021/10/20 11:06:34;;;;;;;1.60;1.30;;;23.00;99.90;;;24.79;58.96;94900.00;2282384;55;33752;-56
2021/10/20 11:09:30;;;;;;;1.67;1.20;;;23.00;99.90;;;25.09;62.75;94905.00;2496471;55;26874;-56
2021/10/20 11:12:16;;;;;;;2.03;1.12;;;23.00;99.90;;;25.07;58.09;94900.00;2489461;55;26165;-56
2021/10/20 11:15:03;;;;;;;1.42;1.15;;;23.10;99.90;;;25.02;57.06;94900.00;2261861;55;26105;-55
2021/10/20 11:17:49;;;;;;;1.40;1.30;;;22.50;99.90;;;23.72;63.04;94890.00;2260217;55;26147;-56
2021/10/20 11:20:42;;;;;;;1.65;1.30;;;21.80;99.90;;;22.78;73.46;94892.00;2493959;54;26597;-56
2021/10/20 11:26:26;;;;;;;2.95;1.37;;;21.60;99.90;;;22.51;80.61;94877.00;2240358;56;33359;-56
2021/10/20 11:29:14;;;;;;;2.85;1.20;;;21.30;99.90;;;22.60;80.62;94869.00;2221143;56;26182;-55
2021/10/20 11:32:00;;;;;;;2.35;1.20;;;21.40;99.90;;;23.12;81.98;94860.00;2216343;56;26643;-55
2021/10/20 11:34:49;;;;;;;1.92;1.25;;;21.90;99.90;;;23.73;68.95;94862.00;2233825;55;26660;-54
2021/10/20 11:37:35;;;;;;;1.60;1.40;;;21.80;99.90;;;23.15;72.96;94857.00;2235937;55;26225;-54
2021/10/20 11:40:23;;;;;;;3.17;1.40;;;21.40;99.90;;;22.52;78.11;94861.00;2458403;55;26673;-53
2021/10/20 11:43:19;;;;;;;4.22;1.55;;;20.90;99.90;;;21.75;85.44;94863.00;2234322;55;26141;-54
2021/10/20 11:46:05;;;;;;;3.25;1.50;;;20.80;99.90;;;21.67;92.38;94856.00;2234508;56;26642;-54
2021/10/20 11:48:52;;;;;;;2.20;1.50;;;21.20;99.90;;;22.51;84.08;94851.00;2231583;55;26239;-56
2021/10/20 11:51:39;;;;;;;2.35;1.45;;;21.70;99.90;;;23.71;77.82;94842.00;2229971;55;26241;-55
2021/10/20 11:54:28;;;;;;;3.03;1.50;;;22.50;99.90;;;24.76;65.79;94836.00;2238529;56;26140;-56
2021/10/20 11:57:17;;;;;;;2.95;1.30;;;23.10;99.90;;;25.18;60.63;94833.00;2457865;55;26102;-55
2021/10/20 12:00:07;;;;;;;6.97;1.85;;;23.40;99.90;;;26.09;59.27;94839.00;2235052;55;26202;-56
2021/10/20 12:02:53;;;;;;;2.12;1.40;;;23.90;99.90;;;26.46;54.77;94831.00;2235424;55;26136;-55
2021/10/20 12:05:40;;;;;;;2.47;1.77;;;24.00;99.90;;;26.32;56.26;94838.00;2235052;55;26154;-56
2021/10/20 12:08:27;;;;;;;2.10;1.70;;;23.80;99.90;;;25.61;56.52;94843.00;2458448;55;26151;-56
2021/10/20 12:11:17;;;;;;;3.00;1.90;;;23.70;99.90;;;25.16;56.01;94833.00;2235234;55;26184;-53
2021/10/20 12:14:05;;;;;;;2.35;1.85;;;23.30;99.90;;;24.98;58.95;94823.00;2458364;55;26151;-57
2021/10/20 12:19:49;;;;;;;6.03;2.30;;;23.70;99.90;;;25.85;62.45;94825.00;2449475;55;33912;-55
2021/10/20 12:22:39;;;;;;;1.80;1.70;;;24.20;99.90;;;26.06;54.92;94818.00;2204728;57;26166;-56
2021/10/20 12:25:25;;;;;;;2.20;1.85;;;23.90;99.90;;;25.03;58.36;94815.00;2442435;55;26206;-56